Time;durP1;ratioP1;P1;durP2;ratioP2;P2;SDS_P1;SDS_P2;PMS_P1;PMS_P2;Temp;Humidity;BMP_temperature;BMP_pressure;BME280_temperature;BME280_humidity;BME280_pressure;Samples;Min_cycle;Max_cycle;Signal;HPM_P1;HPM_P2
2022/12/30 00:00:58;;;;;;;11.10;3.67;;;6.80;99.90;;;;;;5116335;28;20230;-58
2022/12/30 00:03:24;;;;;;;14.15;3.53;;;6.80;99.90;;;;;;5116258;28;20560;-57
2022/12/30 00:05:50;;;;;;;17.60;3.78;;;6.80;99.90;;;;;;5116186;28;20255;-57
2022/12/30 00:11:00;;;;;;;9.68;3.47;;;6.80;99.90;;;;;;5116156;28;20195;-57
2022/12/30 00:34:26;;;;;;;12.40;3.30;;;6.80;99.90;;;;;;5115823;28;20260;-58
2022/12/30 00:36:52;;;;;;;12.55;3.10;;;6.80;99.90;;;;;;5112381;28;20619;-57
2022/12/30 00:39:18;;;;;;;12.18;3.47;;;6.70;99.90;;;;;;5115401;28;20197;-57
2022/12/30 00:44:28;;;;;;;12.02;3.70;;;6.80;99.90;;;;;;5115448;28;20224;-57
2022/12/30 00:46:55;;;;;;;12.85;3.42;;;6.80;99.90;;;;;;5113325;28;20634;-57
2022/12/30 00:57:33;;;;;;;15.60;3.75;;;6.60;99.90;;;;;;5115452;28;20242;-58
2022/12/30 00:59:58;;;;;;;11.77;3.47;;;6.60;99.90;;;;;;5113983;28;20174;-58
2022/12/30 01:02:25;;;;;;;14.40;3.35;;;6.60;99.90;;;;;;5114905;28;20174;-57
2022/12/30 01:04:54;;;;;;;10.02;2.58;;;6.60;99.90;;;;;;5114855;28;20653;-57
2022/12/30 01:07:19;;;;;;;10.73;2.75;;;6.60;99.90;;;;;;5114797;28;20176;-58
2022/12/30 01:09:45;;;;;;;8.38;2.75;;;6.60;99.90;;;;;;5114973;28;20169;-57
2022/12/30 01:12:11;;;;;;;10.35;3.05;;;6.60;99.90;;;;;;5115033;28;20551;-58
2022/12/30 01:14:45;;;;;;;10.50;2.92;;;6.50;99.90;;;;;;5114715;28;20165;-58
2022/12/30 01:17:14;;;;;;;9.85;2.80;;;6.40;99.90;;;;;;5114652;28;20568;-57
2022/12/30 01:19:40;;;;;;;10.20;3.15;;;6.40;99.90;;;;;;5114537;28;20691;-57
2022/12/30 01:22:06;;;;;;;11.10;2.85;;;6.40;99.90;;;;;;5115061;28;20185;-58
2022/12/30 01:24:32;;;;;;;12.40;3.03;;;6.30;99.90;;;;;;5114587;28;20257;-58
2022/12/30 01:26:58;;;;;;;13.27;3.58;;;6.40;99.90;;;;;;5114520;28;20196;-58
2022/12/30 01:29:32;;;;;;;9.65;2.92;;;6.30;99.90;;;;;;5114501;28;20330;-57
2022/12/30 01:31:58;;;;;;;9.35;2.50;;;6.40;99.90;;;;;;5114401;28;20158;-58
2022/12/30 01:34:24;;;;;;;10.00;3.03;;;6.40;99.90;;;;;;5114358;28;20207;-57
2022/12/30 01:36:50;;;;;;;12.38;3.50;;;6.30;99.90;;;;;;5114204;28;20562;-57
2022/12/30 01:39:16;;;;;;;10.25;3.05;;;6.30;99.90;;;;;;5114410;28;20586;-57
2022/12/30 01:41:42;;;;;;;14.45;3.20;;;6.30;99.90;;;;;;5113147;28;20181;-57
2022/12/30 01:44:45;;;;;;;11.82;3.15;;;6.30;99.90;;;;;;5114028;28;20531;-58
2022/12/30 01:47:26;;;;;;;11.45;3.22;;;6.20;99.90;;;;;;5114235;28;20187;-58
2022/12/30 01:49:57;;;;;;;11.18;3.13;;;6.20;99.90;;;;;;5114153;28;20191;-58
2022/12/30 01:52:25;;;;;;;13.82;3.38;;;6.30;99.90;;;;;;5114152;28;20502;-58
2022/12/30 01:54:54;;;;;;;9.23;2.90;;;6.30;99.90;;;;;;5112638;28;20181;-58
2022/12/30 01:57:20;;;;;;;10.65;3.25;;;6.20;99.90;;;;;;5113820;28;20192;-58
2022/12/30 01:59:47;;;;;;;9.85;2.75;;;6.20;99.90;;;;;;5114110;28;20172;-57
2022/12/30 02:02:14;;;;;;;11.18;3.65;;;6.20;99.90;;;;;;5114016;28;20177;-57
2022/12/30 02:04:40;;;;;;;13.52;3.20;;;6.10;99.90;;;;;;5113845;28;20653;-57
2022/12/30 02:07:13;;;;;;;16.83;3.75;;;6.10;99.90;;;;;;5113837;28;20181;-57
2022/12/30 02:09:39;;;;;;;14.05;3.55;;;6.10;99.90;;;;;;5113806;28;20224;-57
2022/12/30 02:12:06;;;;;;;12.15;3.58;;;6.10;99.90;;;;;;5114154;28;20263;-57
2022/12/30 02:14:37;;;;;;;11.02;4.20;;;6.00;99.90;;;;;;5113970;28;20173;-58
2022/12/30 02:17:40;;;;;;;13.25;4.13;;;6.00;99.90;;;;;;5113776;28;20868;-57
2022/12/30 02:20:34;;;;;;;17.27;4.15;;;6.10;99.90;;;;;;5113854;28;20172;-57
2022/12/30 02:23:20;;;;;;;10.95;3.88;;;6.10;99.90;;;;;;5113736;28;20177;-58
2022/12/30 02:26:11;;;;;;;12.55;3.92;;;6.10;99.90;;;;;;5113736;28;20183;-58
2022/12/30 02:29:15;;;;;;;14.23;3.90;;;6.00;99.90;;;;;;5113771;28;20168;-57
2022/12/30 02:31:59;;;;;;;13.23;3.92;;;6.10;99.90;;;;;;5132388;27;20184;-57
2022/12/30 02:34:50;;;;;;;13.35;3.47;;;6.10;99.90;;;;;;5113814;28;20225;-57
2022/12/30 02:37:44;;;;;;;13.18;4.28;;;6.10;99.90;;;;;;5113667;28;20283;-57
2022/12/30 02:44:36;;;;;;;9.77;3.50;;;6.10;99.90;;;;;;5113670;28;20241;-58
2022/12/30 02:46:07;;;;;;;15.43;3.60;;;6.00;99.90;;;;;;5113482;28;20184;-57
2022/12/30 02:48:37;;;;;;;11.25;3.63;;;6.00;99.90;;;;;;5113429;28;20659;-57
2022/12/30 02:53:49;;;;;;;13.20;4.38;;;6.00;99.90;;;;;;5113738;28;20722;-57
2022/12/30 02:56:15;;;;;;;13.07;3.40;;;5.90;99.90;;;;;;5113367;28;20208;-57
2022/12/30 02:58:48;;;;;;;13.43;3.83;;;5.90;99.90;;;;;;5113400;28;20530;-58
2022/12/30 03:05:13;;;;;;;11.43;3.63;;;6.00;99.90;;;;;;5113518;28;20186;-57
2022/12/30 03:08:05;;;;;;;11.88;3.28;;;5.90;99.90;;;;;;5050575;28;20178;-58
2022/12/30 03:13:33;;;;;;;10.40;3.22;;;5.90;99.90;;;;;;5116062;28;20187;-57
2022/12/30 03:16:03;;;;;;;8.57;2.83;;;5.90;99.90;;;;;;5117086;28;20197;-57
2022/12/30 03:18:29;;;;;;;13.18;3.60;;;5.90;99.90;;;;;;5116868;28;20176;-57
2022/12/30 03:20:55;;;;;;;15.40;3.88;;;5.90;99.90;;;;;;5117174;28;20168;-58
2022/12/30 03:28:58;;;;;;;11.95;3.53;;;5.80;99.90;;;;;;5117076;28;20198;-57
2022/12/30 03:31:24;;;;;;;17.10;3.72;;;6.00;99.90;;;;;;5116860;28;20176;-58
2022/12/30 03:33:50;;;;;;;12.18;3.58;;;5.90;99.90;;;;;;5116844;28;20584;-57
2022/12/30 03:36:37;;;;;;;11.68;3.92;;;5.90;99.90;;;;;;5117591;27;20227;-57
2022/12/30 03:39:19;;;;;;;15.02;3.75;;;5.90;99.90;;;;;;5116600;28;20350;-58
2022/12/30 03:41:47;;;;;;;16.38;3.72;;;5.90;99.90;;;;;;5116677;28;20259;-58
2022/12/30 03:44:15;;;;;;;12.38;3.17;;;5.90;99.90;;;;;;5116589;28;20208;-57
2022/12/30 03:46:43;;;;;;;13.20;3.35;;;6.00;99.90;;;;;;5116515;27;20230;-57
2022/12/30 03:49:09;;;;;;;10.30;3.33;;;6.00;99.90;;;;;;5115185;28;20179;-58
2022/12/30 03:51:35;;;;;;;13.95;3.70;;;5.90;99.90;;;;;;5116284;28;20219;-58
2022/12/30 03:54:00;;;;;;;11.68;3.88;;;5.90;99.90;;;;;;5116511;28;20179;-58
2022/12/30 03:56:26;;;;;;;13.75;3.88;;;5.90;99.90;;;;;;5116235;28;20661;-57
2022/12/30 03:58:51;;;;;;;19.65;4.13;;;5.90;99.90;;;;;;5116171;28;20229;-57
2022/12/30 04:01:17;;;;;;;11.50;3.70;;;5.80;99.90;;;;;;5116242;28;20637;-57
2022/12/30 04:03:43;;;;;;;14.13;3.25;;;5.90;99.90;;;;;;5116232;28;20185;-58
2022/12/30 04:06:08;;;;;;;12.70;3.38;;;5.90;99.90;;;;;;5116044;28;20180;-58
2022/12/30 04:08:34;;;;;;;15.02;3.92;;;5.80;99.90;;;;;;5116011;28;20191;-58
2022/12/30 04:11:00;;;;;;;13.88;3.85;;;5.80;99.90;;;;;;5115916;28;20185;-58
2022/12/30 04:13:26;;;;;;;12.20;3.63;;;5.80;99.90;;;;;;5116082;28;20246;-58
2022/12/30 04:15:51;;;;;;;16.40;3.97;;;5.80;99.90;;;;;;5114528;28;20222;-57
2022/12/30 04:18:18;;;;;;;14.63;4.28;;;5.80;99.90;;;;;;5115944;28;20205;-58
2022/12/30 04:20:45;;;;;;;12.05;3.60;;;5.80;99.90;;;;;;5114490;28;20176;-58
2022/12/30 04:23:11;;;;;;;11.48;3.45;;;5.70;99.90;;;;;;5115947;28;20172;-58
2022/12/30 04:25:36;;;;;;;12.15;3.70;;;5.70;99.90;;;;;;5114629;28;20601;-57
2022/12/30 04:28:02;;;;;;;14.10;4.07;;;5.80;99.90;;;;;;5115651;28;20799;-57
2022/12/30 04:30:28;;;;;;;13.25;3.33;;;5.80;99.90;;;;;;5115581;28;20176;-57
2022/12/30 04:32:54;;;;;;;13.27;3.60;;;5.70;99.90;;;;;;5115616;28;20654;-57
2022/12/30 04:35:19;;;;;;;10.68;3.20;;;5.70;99.90;;;;;;5115668;28;20260;-58
2022/12/30 04:37:48;;;;;;;13.13;3.47;;;5.80;99.90;;;;;;5115429;28;20180;-58
2022/12/30 04:40:14;;;;;;;15.20;3.53;;;5.80;99.90;;;;;;5115572;28;20176;-57
2022/12/30 04:42:39;;;;;;;15.35;4.07;;;5.70;99.90;;;;;;5115186;28;20233;-57
2022/12/30 04:45:06;;;;;;;12.27;4.03;;;5.80;99.90;;;;;;5115283;28;20176;-57
2022/12/30 04:47:31;;;;;;;12.00;3.25;;;5.90;99.90;;;;;;5115310;28;20173;-58
2022/12/30 04:49:57;;;;;;;16.08;3.58;;;5.90;99.90;;;;;;5115453;28;20172;-58
2022/12/30 04:52:22;;;;;;;16.13;3.83;;;5.90;99.90;;;;;;5115098;28;20179;-58
2022/12/30 04:54:48;;;;;;;19.85;3.90;;;5.90;99.90;;;;;;5115313;28;20534;-58
2022/12/30 04:57:14;;;;;;;15.50;3.35;;;5.90;99.90;;;;;;5115082;28;20222;-57
2022/12/30 04:59:39;;;;;;;15.25;4.20;;;5.90;99.90;;;;;;5115148;28;20218;-57
2022/12/30 05:02:05;;;;;;;17.00;4.07;;;5.90;99.90;;;;;;5115301;28;20184;-57
2022/12/30 05:04:31;;;;;;;12.48;3.67;;;5.90;99.90;;;;;;5114801;28;20600;-58
2022/12/30 05:06:56;;;;;;;13.38;3.47;;;5.90;99.90;;;;;;5114942;28;20515;-58
2022/12/30 05:09:22;;;;;;;11.15;4.03;;;5.90;99.90;;;;;;5115103;28;20614;-57
2022/12/30 05:11:48;;;;;;;15.40;3.80;;;6.00;99.90;;;;;;5114826;28;20239;-57
2022/12/30 05:14:13;;;;;;;14.63;3.33;;;5.90;99.90;;;;;;5114869;28;20212;-57
2022/12/30 05:16:39;;;;;;;15.38;3.85;;;5.80;99.90;;;;;;5114687;28;20517;-58
2022/12/30 05:19:05;;;;;;;17.30;4.30;;;5.90;99.90;;;;;;5114585;28;20207;-57
2022/12/30 05:21:30;;;;;;;14.77;3.95;;;5.90;99.90;;;;;;5114732;28;20187;-57
2022/12/30 05:26:40;;;;;;;11.65;4.07;;;6.00;99.90;;;;;;5114807;28;20242;-57
2022/12/30 05:29:06;;;;;;;13.98;4.57;;;6.00;99.90;;;;;;5114527;28;20530;-57
2022/12/30 05:31:35;;;;;;;17.42;4.20;;;5.90;99.90;;;;;;5113912;28;20176;-58
2022/12/30 05:34:00;;;;;;;15.48;4.65;;;6.00;99.90;;;;;;5114582;28;20521;-57
2022/12/30 05:36:26;;;;;;;13.63;3.95;;;5.90;99.90;;;;;;5114436;28;20258;-57
2022/12/30 05:38:52;;;;;;;15.00;4.03;;;5.90;99.90;;;;;;5114415;28;20583;-57
2022/12/30 05:41:17;;;;;;;12.13;4.45;;;5.90;99.90;;;;;;5114204;28;20657;-58
2022/12/30 05:43:48;;;;;;;12.25;4.50;;;5.90;99.90;;;;;;5113173;28;20218;-58
2022/12/30 05:46:14;;;;;;;14.50;4.20;;;5.90;99.90;;;;;;5114190;28;20191;-57
2022/12/30 05:48:39;;;;;;;17.30;4.72;;;6.00;99.90;;;;;;5113171;28;20173;-57
2022/12/30 05:51:05;;;;;;;16.85;5.00;;;6.00;99.90;;;;;;5114284;28;20249;-57
2022/12/30 05:53:31;;;;;;;16.98;5.13;;;6.00;99.90;;;;;;5114155;28;20208;-58
2022/12/30 05:55:58;;;;;;;14.18;5.57;;;6.00;99.90;;;;;;5113919;28;20204;-58
2022/12/30 05:58:24;;;;;;;16.40;5.60;;;6.10;99.90;;;;;;5113948;28;20276;-58
2022/12/30 06:00:50;;;;;;;22.27;6.30;;;6.10;99.90;;;;;;5113878;28;20238;-57
2022/12/30 06:03:16;;;;;;;18.65;6.13;;;6.10;99.90;;;;;;5114022;28;20173;-57
2022/12/30 06:05:42;;;;;;;17.70;6.45;;;6.10;99.90;;;;;;5113745;28;20181;-57
2022/12/30 06:08:09;;;;;;;18.23;6.10;;;6.10;99.90;;;;;;5113999;28;20201;-58
2022/12/30 06:10:35;;;;;;;16.67;6.40;;;6.00;99.90;;;;;;5113770;28;20172;-57
2022/12/30 06:13:00;;;;;;;13.88;6.07;;;6.10;99.90;;;;;;5113815;28;20685;-57
2022/12/30 06:15:29;;;;;;;13.75;6.45;;;6.20;99.90;;;;;;5113592;28;20204;-57
2022/12/30 06:17:55;;;;;;;19.80;6.15;;;6.20;99.90;;;;;;5113907;28;20546;-58
2022/12/30 06:20:21;;;;;;;17.30;7.40;;;6.30;99.90;;;;;;5112894;28;20169;-58
2022/12/30 06:22:49;;;;;;;14.70;6.85;;;6.20;99.90;;;;;;5112343;28;20712;-57
2022/12/30 06:25:15;;;;;;;13.73;7.13;;;6.30;99.90;;;;;;5113560;28;20181;-57
2022/12/30 06:27:40;;;;;;;16.83;7.60;;;6.30;99.90;;;;;;5113616;28;20236;-57
2022/12/30 06:30:06;;;;;;;15.20;6.47;;;6.40;99.90;;;;;;5113546;28;20173;-58
2022/12/30 06:32:32;;;;;;;12.43;6.40;;;6.40;99.90;;;;;;5113771;28;20169;-58
2022/12/30 06:34:58;;;;;;;17.67;6.53;;;6.50;99.90;;;;;;5113691;28;20645;-58
2022/12/30 06:37:23;;;;;;;16.40;7.03;;;6.50;99.90;;;;;;5113437;28;20693;-58
2022/12/30 06:39:49;;;;;;;13.80;5.93;;;6.60;99.90;;;;;;5113574;28;20170;-57
2022/12/30 06:42:14;;;;;;;14.10;6.32;;;6.70;99.90;;;;;;5113881;28;20174;-58
2022/12/30 06:44:40;;;;;;;12.57;5.50;;;6.80;99.90;;;;;;5116403;28;20287;-58
2022/12/30 06:47:06;;;;;;;14.88;5.88;;;6.80;99.90;;;;;;5117784;28;20182;-57
2022/12/30 06:49:31;;;;;;;12.00;5.85;;;6.80;99.90;;;;;;5117736;28;20258;-58
2022/12/30 06:51:57;;;;;;;10.98;4.82;;;6.90;99.90;;;;;;5117695;28;20594;-57
2022/12/30 06:54:22;;;;;;;10.05;4.85;;;6.90;99.90;;;;;;5117898;28;20688;-57
2022/12/30 06:56:48;;;;;;;11.95;5.22;;;6.90;99.90;;;;;;5115748;28;20220;-58
2022/12/30 06:59:14;;;;;;;11.50;4.70;;;7.10;99.90;;;;;;5116047;28;20170;-57
2022/12/30 07:01:39;;;;;;;8.60;3.92;;;7.00;99.90;;;;;;5117248;28;20230;-57
2022/12/30 07:04:06;;;;;;;9.32;4.13;;;7.00;99.90;;;;;;5117302;28;20779;-57
2022/12/30 07:06:32;;;;;;;10.43;3.92;;;7.00;99.90;;;;;;5117199;27;20184;-58
2022/12/30 07:09:01;;;;;;;11.10;3.95;;;7.00;99.90;;;;;;5113738;28;20181;-58
2022/12/30 07:11:26;;;;;;;10.05;4.45;;;7.00;99.90;;;;;;5114429;28;20188;-57
2022/12/30 07:13:52;;;;;;;8.85;3.50;;;7.10;99.90;;;;;;5116669;28;20191;-57
2022/12/30 07:16:18;;;;;;;11.70;3.88;;;7.10;99.90;;;;;;5116944;28;20539;-57
2022/12/30 07:18:43;;;;;;;10.40;3.25;;;7.10;99.90;;;;;;5116604;28;20181;-59
2022/12/30 07:21:09;;;;;;;9.38;3.28;;;7.10;99.90;;;;;;5116610;28;20173;-57
2022/12/30 07:23:35;;;;;;;7.75;3.22;;;7.10;99.90;;;;;;5116709;28;20622;-58
2022/12/30 07:26:01;;;;;;;7.63;3.33;;;7.10;99.90;;;;;;5113296;28;20187;-57
2022/12/30 07:28:26;;;;;;;9.57;3.83;;;7.20;99.90;;;;;;5114439;28;20208;-57
2022/12/30 07:30:52;;;;;;;11.35;3.92;;;7.30;99.90;;;;;;5116432;28;20181;-57
2022/12/30 07:33:18;;;;;;;9.38;3.33;;;7.40;99.90;;;;;;5116497;28;20234;-57
2022/12/30 07:35:43;;;;;;;11.45;3.60;;;7.40;99.90;;;;;;5116005;28;20272;-58
2022/12/30 07:38:09;;;;;;;11.15;3.03;;;7.40;99.90;;;;;;5115569;28;20256;-57
2022/12/30 07:40:36;;;;;;;7.88;3.25;;;7.30;99.90;;;;;;5114739;28;20177;-58
2022/12/30 07:43:03;;;;;;;8.65;3.22;;;7.30;99.90;;;;;;5114404;28;20882;-57
2022/12/30 07:45:28;;;;;;;8.23;2.95;;;7.30;99.90;;;;;;5116528;28;20180;-57
2022/12/30 07:47:58;;;;;;;10.25;3.40;;;7.40;99.90;;;;;;5116233;28;20661;-57
2022/12/30 07:50:23;;;;;;;9.40;3.10;;;7.40;99.90;;;;;;5116318;28;20652;-57
2022/12/30 07:52:49;;;;;;;7.75;3.15;;;7.40;99.90;;;;;;5115929;28;20166;-57
2022/12/30 07:55:15;;;;;;;8.18;2.95;;;7.50;99.90;;;;;;5115768;28;20182;-57
2022/12/30 07:57:40;;;;;;;8.13;3.05;;;7.40;99.90;;;;;;5115375;28;20196;-57
2022/12/30 08:00:09;;;;;;;10.98;3.60;;;7.30;99.90;;;;;;5116129;28;20174;-57
2022/12/30 08:02:35;;;;;;;6.97;2.92;;;7.40;99.90;;;;;;5115916;28;20174;-57
2022/12/30 08:05:01;;;;;;;8.32;3.03;;;7.40;99.90;;;;;;5115958;28;20177;-57
2022/12/30 08:07:27;;;;;;;7.38;2.55;;;7.40;99.90;;;;;;5115737;28;20173;-57
2022/12/30 08:09:53;;;;;;;7.78;3.05;;;7.40;99.90;;;;;;5115724;28;20637;-57
2022/12/30 08:12:19;;;;;;;8.93;3.28;;;7.40;99.90;;;;;;5115564;28;20173;-58
2022/12/30 08:14:45;;;;;;;8.27;2.97;;;7.50;99.90;;;;;;5114987;28;20540;-57
2022/12/30 08:17:10;;;;;;;9.57;3.47;;;7.50;99.90;;;;;;5115597;28;20283;-58
2022/12/30 08:19:36;;;;;;;8.20;3.00;;;7.50;99.90;;;;;;5115982;28;20165;-57
2022/12/30 08:22:01;;;;;;;8.82;3.10;;;7.50;99.90;;;;;;5115411;28;20621;-57
2022/12/30 08:24:27;;;;;;;7.97;3.10;;;7.50;99.90;;;;;;5115807;28;20191;-57
2022/12/30 08:26:53;;;;;;;10.65;3.10;;;7.50;99.90;;;;;;5115603;28;20177;-57
2022/12/30 08:29:18;;;;;;;7.10;3.00;;;7.60;99.90;;;;;;5114844;28;20529;-57
2022/12/30 08:31:49;;;;;;;9.18;3.55;;;7.60;99.90;;;;;;5115975;28;20170;-57
2022/12/30 08:34:19;;;;;;;6.57;2.50;;;7.60;99.90;;;;;;5115824;28;20205;-57
2022/12/30 08:36:46;;;;;;;7.20;3.20;;;7.60;99.90;;;;;;5115559;28;20238;-58
2022/12/30 08:39:12;;;;;;;7.80;3.20;;;7.70;99.90;;;;;;5115425;28;20172;-57
2022/12/30 08:41:43;;;;;;;6.45;2.83;;;7.60;99.90;;;;;;5113534;28;20185;-57
2022/12/30 08:44:09;;;;;;;6.38;2.80;;;7.70;99.90;;;;;;5115511;28;20192;-57
2022/12/30 08:46:36;;;;;;;7.38;2.90;;;7.80;99.90;;;;;;5115459;28;20179;-57
2022/12/30 08:49:03;;;;;;;4.82;2.90;;;7.80;99.90;;;;;;5114185;28;20178;-57
2022/12/30 08:51:29;;;;;;;8.93;2.92;;;7.90;99.90;;;;;;5115543;28;20691;-57
2022/12/30 08:53:55;;;;;;;8.52;3.00;;;7.90;99.90;;;;;;5113908;28;20174;-58
2022/12/30 08:56:31;;;;;;;6.75;3.10;;;7.90;99.90;;;;;;5115261;28;20578;-57
2022/12/30 08:58:58;;;;;;;6.90;2.97;;;8.00;99.90;;;;;;5115265;28;20256;-57
2022/12/30 09:01:36;;;;;;;9.32;4.05;;;8.00;99.90;;;;;;5115118;28;20176;-57
2022/12/30 09:04:03;;;;;;;6.05;2.90;;;8.00;99.90;;;;;;5115032;28;20160;-57
2022/12/30 09:06:29;;;;;;;6.60;3.47;;;8.00;99.90;;;;;;5114218;27;20189;-57
2022/12/30 09:08:56;;;;;;;7.63;3.17;;;8.10;99.90;;;;;;5114825;28;20222;-57
2022/12/30 09:11:26;;;;;;;10.02;3.20;;;8.00;99.90;;;;;;5114904;28;20165;-57
2022/12/30 09:13:52;;;;;;;7.57;3.28;;;8.20;99.90;;;;;;5114911;28;20173;-57
2022/12/30 09:16:23;;;;;;;8.30;2.90;;;8.20;99.90;;;;;;5114661;28;20205;-57
2022/12/30 09:18:50;;;;;;;6.57;3.05;;;8.30;99.90;;;;;;5114642;28;20203;-56
2022/12/30 09:21:17;;;;;;;6.70;3.00;;;8.30;99.90;;;;;;5115126;28;20239;-56
2022/12/30 09:23:43;;;;;;;6.65;2.90;;;8.30;99.90;;;;;;5114711;28;20169;-56
2022/12/30 09:26:14;;;;;;;4.35;2.60;;;8.40;99.90;;;;;;5114713;28;20204;-57
2022/12/30 09:28:40;;;;;;;7.00;2.70;;;8.40;99.90;;;;;;5114590;28;20292;-56
2022/12/30 09:31:06;;;;;;;6.78;2.40;;;8.40;99.90;;;;;;5114480;28;20174;-57
2022/12/30 09:33:32;;;;;;;5.68;2.35;;;8.50;99.90;;;;;;5114288;28;20313;-57
2022/12/30 09:35:58;;;;;;;5.53;2.20;;;8.40;99.90;;;;;;5114481;28;20205;-57
2022/12/30 09:38:25;;;;;;;6.95;2.42;;;8.40;99.90;;;;;;5114399;28;20177;-55
2022/12/30 09:41:11;;;;;;;4.68;2.13;;;8.40;99.90;;;;;;5114494;28;20170;-55
2022/12/30 09:43:52;;;;;;;6.45;2.35;;;8.50;99.90;;;;;;5114328;28;20642;-54
2022/12/30 09:46:20;;;;;;;8.18;2.95;;;8.40;99.90;;;;;;5114358;28;20188;-55
2022/12/30 09:48:52;;;;;;;5.85;2.50;;;8.40;99.90;;;;;;5114128;28;20162;-57
2022/12/30 09:51:25;;;;;;;6.38;2.40;;;8.40;99.90;;;;;;5114281;28;20256;-56
2022/12/30 09:53:53;;;;;;;10.20;3.25;;;8.50;99.90;;;;;;5114132;28;20165;-56
2022/12/30 09:56:28;;;;;;;9.77;2.50;;;8.50;99.90;;;;;;5095677;28;20561;-57
2022/12/30 09:59:00;;;;;;;6.93;2.42;;;8.50;99.90;;;;;;5114215;28;20651;-55
2022/12/30 10:01:43;;;;;;;6.35;2.30;;;8.60;99.90;;;;;;5114026;28;20169;-56
2022/12/30 10:04:17;;;;;;;6.50;2.83;;;8.70;99.90;;;;;;5113889;28;20169;-55
2022/12/30 10:07:09;;;;;;;8.55;2.63;;;8.60;99.90;;;;;;5113887;28;20214;-57
2022/12/30 10:10:01;;;;;;;7.88;2.20;;;8.60;99.90;;;;;;5114032;28;20187;-56
2022/12/30 10:12:37;;;;;;;7.40;2.58;;;8.70;99.90;;;;;;5113878;28;20719;-55
2022/12/30 10:15:15;;;;;;;5.75;2.10;;;8.60;99.90;;;;;;5113754;28;20181;-56
2022/12/30 10:17:59;;;;;;;7.78;2.55;;;8.70;99.90;;;;;;5113975;28;20196;-56
2022/12/30 10:20:49;;;;;;;6.13;2.20;;;8.70;99.90;;;;;;5113902;28;20180;-55
2022/12/30 10:23:25;;;;;;;6.07;2.35;;;8.80;99.90;;;;;;5113736;28;20173;-56
2022/12/30 10:26:14;;;;;;;4.43;1.88;;;8.90;99.90;;;;;;5113965;28;20176;-56
2022/12/30 10:28:46;;;;;;;10.05;2.50;;;8.90;99.90;;;;;;5113755;28;20173;-55
2022/12/30 10:31:24;;;;;;;6.65;2.53;;;8.90;99.90;;;;;;5113597;28;20165;-55
2022/12/30 10:34:02;;;;;;;7.15;2.50;;;9.10;99.90;;;;;;5113414;28;20168;-54
2022/12/30 10:36:34;;;;;;;7.53;2.10;;;9.00;99.90;;;;;;5113668;28;20280;-54
2022/12/30 10:39:16;;;;;;;7.18;2.50;;;9.00;99.90;;;;;;5113560;28;20630;-55
2022/12/30 10:41:52;;;;;;;10.50;2.53;;;9.10;99.90;;;;;;5113352;28;20637;-55
2022/12/30 10:44:24;;;;;;;5.38;2.13;;;9.10;99.90;;;;;;5113693;28;20184;-55
2022/12/30 10:47:22;;;;;;;4.93;1.90;;;9.10;99.90;;;;;;5113774;28;20173;-55
2022/12/30 10:49:59;;;;;;;8.35;2.60;;;9.20;99.90;;;;;;5107186;28;20523;-55
2022/12/30 10:52:25;;;;;;;5.32;2.20;;;9.40;99.90;;;;;;5110443;28;20534;-55
2022/12/30 10:54:51;;;;;;;8.57;2.25;;;9.40;99.90;;;;;;5111727;28;20589;-55
2022/12/30 10:57:22;;;;;;;7.55;2.40;;;9.40;99.90;;;;;;5113290;28;20262;-55
2022/12/30 10:59:48;;;;;;;8.27;2.80;;;9.50;99.90;;;;;;5113342;28;20227;-55
2022/12/30 11:02:30;;;;;;;6.55;2.53;;;9.50;99.90;;;;;;5113070;28;20169;-56
2022/12/30 11:04:56;;;;;;;7.60;2.00;;;9.40;99.90;;;;;;5113462;28;20165;-54
2022/12/30 11:07:22;;;;;;;6.72;2.70;;;9.40;99.90;;;;;;5112797;28;20284;-55
2022/12/30 11:09:48;;;;;;;7.03;2.33;;;9.30;99.90;;;;;;5111898;28;20590;-54
2022/12/30 11:15:24;;;;;;;6.90;2.60;;;9.40;99.90;;;;;;5113577;28;20176;-54
2022/12/30 11:17:55;;;;;;;6.22;2.30;;;9.40;99.90;;;;;;5113092;28;20192;-54
2022/12/30 11:20:21;;;;;;;7.53;2.50;;;9.40;99.90;;;;;;5113379;28;20557;-57
2022/12/30 11:22:55;;;;;;;6.07;2.38;;;9.40;99.90;;;;;;5111933;28;20177;-55
2022/12/30 11:25:27;;;;;;;7.72;2.30;;;9.40;99.90;;;;;;5111946;28;20176;-57
2022/12/30 11:27:59;;;;;;;5.68;2.22;;;9.40;99.90;;;;;;5113022;28;20173;-55
2022/12/30 11:30:35;;;;;;;6.43;2.30;;;9.40;99.90;;;;;;5113689;28;20170;-55
2022/12/30 11:33:14;;;;;;;5.40;2.28;;;9.30;99.90;;;;;;5117013;28;20647;-56
2022/12/30 11:35:44;;;;;;;6.57;2.45;;;9.30;99.90;;;;;;5116869;28;20197;-57
2022/12/30 11:38:31;;;;;;;3.67;1.98;;;9.20;99.90;;;;;;5116770;28;20169;-55
2022/12/30 11:41:12;;;;;;;7.20;2.60;;;9.20;99.90;;;;;;5116706;28;20522;-55
2022/12/30 11:43:38;;;;;;;7.97;2.42;;;9.30;99.90;;;;;;5116828;28;20185;-54
2022/12/30 11:46:15;;;;;;;7.07;3.10;;;9.20;99.90;;;;;;5116661;28;20178;-55
2022/12/30 11:48:51;;;;;;;6.57;2.40;;;9.30;99.90;;;;;;5115828;28;20192;-56
2022/12/30 11:51:24;;;;;;;7.10;2.40;;;9.40;99.90;;;;;;5115436;28;20250;-55
2022/12/30 11:54:11;;;;;;;6.47;2.15;;;9.40;99.90;;;;;;5116433;28;20537;-55
2022/12/30 11:56:49;;;;;;;5.63;2.08;;;9.30;99.90;;;;;;5116337;28;20189;-55
2022/12/30 11:59:18;;;;;;;5.47;2.00;;;9.40;99.90;;;;;;5116299;28;20173;-55
2022/12/30 12:01:47;;;;;;;5.78;2.13;;;9.30;99.90;;;;;;5116460;28;20177;-54
2022/12/30 12:04:34;;;;;;;4.70;2.00;;;9.40;99.90;;;;;;5116397;28;20379;-54
2022/12/30 12:07:00;;;;;;;6.07;1.85;;;9.40;99.90;;;;;;5116151;28;20519;-55
2022/12/30 12:09:33;;;;;;;4.72;1.92;;;9.40;99.90;;;;;;5116161;28;20184;-54
2022/12/30 12:12:04;;;;;;;5.07;1.85;;;9.50;99.90;;;;;;5116328;28;20174;-54
2022/12/30 12:14:39;;;;;;;5.00;1.90;;;9.50;99.90;;;;;;5116282;28;20178;-55
2022/12/30 12:17:33;;;;;;;5.95;1.90;;;9.60;99.90;;;;;;5116035;28;20199;-55
2022/12/30 12:20:11;;;;;;;4.90;1.88;;;9.50;99.90;;;;;;5115872;28;20177;-55
2022/12/30 12:22:47;;;;;;;4.70;1.65;;;9.60;99.90;;;;;;5115784;28;20520;-55
2022/12/30 12:25:26;;;;;;;5.03;1.65;;;9.60;99.90;;;;;;5116007;28;20577;-56
2022/12/30 12:27:52;;;;;;;3.33;1.70;;;9.60;99.90;;;;;;5115813;28;20196;-55
2022/12/30 12:30:19;;;;;;;4.25;1.60;;;9.70;99.90;;;;;;5115634;28;20644;-55
2022/12/30 12:33:19;;;;;;;3.28;1.60;;;9.70;99.90;;;;;;5115575;28;20176;-57
2022/12/30 12:35:45;;;;;;;4.22;1.95;;;9.70;99.90;;;;;;5115804;28;20718;-55
2022/12/30 12:38:52;;;;;;;4.00;1.60;;;9.60;99.90;;;;;;5115567;28;20177;-55
2022/12/30 12:41:24;;;;;;;5.22;2.22;;;9.70;99.90;;;;;;5114509;28;20173;-55
2022/12/30 12:44:10;;;;;;;4.22;1.88;;;9.50;99.90;;;;;;5115270;28;20545;-54
2022/12/30 12:47:03;;;;;;;2.88;1.92;;;9.60;99.90;;;;;;5115430;28;20168;-56
2022/12/30 12:49:45;;;;;;;4.53;2.03;;;9.70;99.90;;;;;;5115240;28;20623;-55
2022/12/30 12:52:23;;;;;;;2.83;2.15;;;9.60;99.90;;;;;;5115545;27;20170;-57
2022/12/30 12:55:19;;;;;;;5.18;2.60;;;9.60;99.90;;;;;;5115256;28;20230;-57
2022/12/30 12:58:09;;;;;;;2.42;1.90;;;9.50;99.90;;;;;;5114959;28;20181;-56
2022/12/30 13:00:41;;;;;;;4.07;1.60;;;9.50;99.90;;;;;;5115196;28;20256;-57
2022/12/30 13:03:28;;;;;;;4.28;2.55;;;9.50;99.90;;;;;;5114992;28;20228;-56
2022/12/30 13:06:32;;;;;;;3.13;2.40;;;9.60;99.90;;;;;;5114833;28;20309;-55
2022/12/30 13:09:06;;;;;;;3.90;2.58;;;9.70;99.90;;;;;;5105548;28;20636;-55
2022/12/30 13:12:01;;;;;;;3.40;2.50;;;9.60;99.90;;;;;;5115008;28;20641;-55
2022/12/30 13:14:33;;;;;;;2.95;1.83;;;9.60;99.90;;;;;;5114749;28;20170;-55
2022/12/30 13:17:04;;;;;;;2.13;1.30;;;9.50;99.90;;;;;;5114624;28;20204;-55
2022/12/30 13:19:35;;;;;;;3.25;1.83;;;9.50;99.90;;;;;;5114839;28;20162;-55
2022/12/30 13:22:13;;;;;;;3.55;2.17;;;9.50;99.90;;;;;;5114722;28;20276;-55
2022/12/30 13:24:43;;;;;;;2.10;1.50;;;9.60;99.90;;;;;;5114725;28;20259;-55
2022/12/30 13:27:32;;;;;;;4.07;1.80;;;9.60;99.90;;;;;;5114797;28;20252;-56
2022/12/30 13:30:00;;;;;;;1.50;1.30;;;9.70;99.90;;;;;;5114727;28;20178;-55
2022/12/30 13:32:54;;;;;;;3.75;2.55;;;9.70;99.90;;;;;;5114496;28;20205;-55
2022/12/30 13:35:25;;;;;;;5.40;3.67;;;9.70;99.90;;;;;;5114407;28;20166;-55
2022/12/30 13:38:00;;;;;;;3.35;1.70;;;9.70;99.90;;;;;;5114280;28;20191;-56
2022/12/30 13:40:31;;;;;;;1.30;1.20;;;9.80;99.90;;;;;;5114479;27;20156;-57
2022/12/30 13:43:18;;;;;;;1.20;1.10;;;9.80;99.90;;;;;;5114197;28;20197;-57
2022/12/30 13:45:48;;;;;;;1.20;1.10;;;9.70;99.90;;;;;;5114254;28;20257;-55
2022/12/30 13:48:19;;;;;;;2.00;1.30;;;9.70;99.90;;;;;;5114383;28;20629;-55
2022/12/30 13:50:46;;;;;;;1.30;1.20;;;9.70;99.90;;;;;;5114332;28;20162;-57
2022/12/30 13:53:32;;;;;;;1.90;1.17;;;9.80;99.90;;;;;;5113965;28;20709;-56
2022/12/30 13:55:58;;;;;;;1.85;1.10;;;9.80;99.90;;;;;;5113972;28;20199;-55
2022/12/30 13:58:26;;;;;;;0.80;0.80;;;9.80;99.90;;;;;;5114517;28;20181;-55
2022/12/30 14:01:28;;;;;;;2.28;1.05;;;9.80;99.90;;;;;;5113980;28;20201;-55
2022/12/30 14:04:09;;;;;;;1.00;0.85;;;9.90;99.90;;;;;;5103379;28;20219;-54
2022/12/30 14:06:50;;;;;;;1.77;0.90;;;9.90;99.90;;;;;;5113781;28;20173;-54
2022/12/30 14:09:20;;;;;;;1.30;1.15;;;9.90;99.90;;;;;;5112746;28;20176;-55
2022/12/30 14:12:08;;;;;;;1.42;0.98;;;9.90;99.90;;;;;;5113964;28;20175;-57